Time;durP1;ratioP1;P1;durP2;ratioP2;P2;SDS_P1;SDS_P2;PMS_P1;PMS_P2;Temp;Humidity;BMP_temperature;BMP_pressure;BME280_temperature;BME280_humidity;BME280_pressure;Samples;Min_cycle;Max_cycle;Signal;HPM_P1;HPM_P2
2022/08/19 00:01:57;;;;;;;27.57;24.97;;;20.50;99.90;;;;;;4923472;28;20727;-87
2022/08/19 00:04:29;;;;;;;25.97;23.57;;;20.50;99.90;;;;;;4932666;28;20241;-88
2022/08/19 00:06:55;;;;;;;26.93;24.53;;;20.50;99.90;;;;;;4930134;28;20454;-87
2022/08/19 00:09:22;;;;;;;26.40;24.03;;;20.40;99.90;;;;;;4949405;28;20449;-88
2022/08/19 00:11:48;;;;;;;26.10;23.73;;;20.40;99.90;;;;;;4930347;28;20520;-88
2022/08/19 00:14:16;;;;;;;23.50;21.20;;;20.40;99.90;;;;;;4931513;28;20527;-87
2022/08/19 00:16:44;;;;;;;22.73;20.70;;;20.30;99.90;;;;;;4949871;28;20659;-88
2022/08/19 00:19:18;;;;;;;25.00;22.73;;;20.30;99.90;;;;;;4931701;28;20477;-87
2022/08/19 00:21:44;;;;;;;24.50;22.30;;;20.30;99.90;;;;;;4940532;28;20449;-88
2022/08/19 00:24:12;;;;;;;22.57;20.57;;;20.50;99.90;;;;;;4926826;28;20497;-88
2022/08/19 00:26:39;;;;;;;22.40;20.40;;;20.50;99.90;;;;;;4948501;28;20498;-89
2022/08/19 00:29:09;;;;;;;23.73;21.70;;;20.40;99.90;;;;;;4952335;28;20441;-89
2022/08/19 00:31:35;;;;;;;24.20;22.10;;;20.30;99.90;;;;;;4946305;28;20445;-89
2022/08/19 00:34:02;;;;;;;23.03;20.83;;;20.30;99.90;;;;;;4954454;28;20847;-88
2022/08/19 00:36:28;;;;;;;23.87;21.50;;;20.20;99.90;;;;;;4958076;28;20224;-88
2022/08/19 00:38:54;;;;;;;23.57;21.40;;;20.10;99.90;;;;;;4931874;28;20913;-88
2022/08/19 00:41:23;;;;;;;22.97;20.70;;;20.00;99.90;;;;;;4928763;28;23274;-89
2022/08/19 00:44:04;;;;;;;22.40;20.20;;;19.90;99.90;;;;;;4950202;28;20445;-89
2022/08/19 00:46:31;;;;;;;19.53;17.53;;;20.00;99.90;;;;;;4929656;28;20839;-88
2022/08/19 00:48:57;;;;;;;22.33;20.23;;;20.00;99.90;;;;;;4928604;28;20442;-89
2022/08/19 00:51:27;;;;;;;21.13;19.20;;;20.00;99.90;;;;;;4930328;28;21736;-88
2022/08/19 00:53:56;;;;;;;21.90;19.90;;;19.90;99.90;;;;;;4930452;28;20449;-88
2022/08/19 00:56:23;;;;;;;20.87;18.77;;;19.90;99.90;;;;;;4945384;28;20442;-89
2022/08/19 00:58:49;;;;;;;20.20;18.10;;;19.90;99.90;;;;;;4948725;28;20794;-88
2022/08/19 01:01:15;;;;;;;21.90;19.70;;;19.90;99.90;;;;;;4932730;28;20830;-88
2022/08/19 01:03:40;;;;;;;22.57;20.27;;;19.80;99.90;;;;;;4948157;28;20436;-89
2022/08/19 01:06:06;;;;;;;20.20;18.23;;;19.70;99.90;;;;;;4926970;28;20587;-88
2022/08/19 01:08:33;;;;;;;22.87;20.67;;;19.70;99.90;;;;;;4928612;28;20190;-86
2022/08/19 01:10:59;;;;;;;21.40;19.20;;;19.70;99.90;;;;;;4947901;28;20442;-89
2022/08/19 01:13:32;;;;;;;22.70;20.00;;;19.70;99.90;;;;;;4928129;28;21941;-88
2022/08/19 01:16:03;;;;;;;21.43;19.43;;;19.60;99.90;;;;;;4931719;28;20448;-89
2022/08/19 01:18:30;;;;;;;21.73;19.53;;;19.60;99.90;;;;;;4926869;28;20442;-89
2022/08/19 01:21:01;;;;;;;22.80;20.57;;;19.60;99.90;;;;;;4934489;28;20472;-89
2022/08/19 01:23:44;;;;;;;22.33;20.20;;;19.60;99.90;;;;;;4933873;28;20492;-89
2022/08/19 01:26:33;;;;;;;20.40;18.50;;;19.60;99.90;;;;;;4933080;28;20458;-88
2022/08/19 01:29:12;;;;;;;21.67;19.67;;;19.80;99.90;;;;;;4931317;28;21374;-89
2022/08/19 01:31:38;;;;;;;21.30;19.30;;;20.00;99.90;;;;;;4932615;28;20442;-89
2022/08/19 01:34:05;;;;;;;20.90;18.77;;;20.00;99.90;;;;;;4935441;28;21184;-89
2022/08/19 01:36:35;;;;;;;21.37;19.37;;;20.00;99.90;;;;;;4925007;28;20902;-89
2022/08/19 01:39:06;;;;;;;21.67;19.67;;;20.00;99.90;;;;;;4939324;28;20997;-88
2022/08/19 01:41:33;;;;;;;20.87;18.97;;;19.90;99.90;;;;;;4945339;28;20469;-88
2022/08/19 01:44:00;;;;;;;20.23;18.53;;;19.80;99.90;;;;;;4924433;28;20477;-88
2022/08/19 01:46:26;;;;;;;20.40;18.60;;;19.70;99.90;;;;;;4928471;28;20552;-88
2022/08/19 01:48:52;;;;;;;22.33;20.13;;;19.70;99.90;;;;;;4945596;28;20504;-88
2022/08/19 01:51:17;;;;;;;22.00;20.00;;;19.60;99.90;;;;;;4947959;28;20187;-88
2022/08/19 01:53:48;;;;;;;22.03;20.13;;;19.50;99.90;;;;;;4942874;28;20216;-88
2022/08/19 01:56:17;;;;;;;22.20;20.20;;;19.50;99.90;;;;;;4940926;28;20203;-88
2022/08/19 01:58:53;;;;;;;21.80;19.70;;;19.50;99.90;;;;;;4948882;28;20528;-88
2022/08/19 02:01:32;;;;;;;22.00;19.90;;;19.50;99.90;;;;;;4941803;28;20815;-89
2022/08/19 02:04:02;;;;;;;22.47;20.50;;;19.50;99.90;;;;;;4927647;28;20435;-88
2022/08/19 02:06:28;;;;;;;21.60;19.50;;;19.40;99.90;;;;;;4919148;28;20549;-88
2022/08/19 02:08:58;;;;;;;21.83;19.53;;;19.40;99.90;;;;;;4940471;28;20469;-89
2022/08/19 02:11:27;;;;;;;20.50;18.60;;;19.40;99.90;;;;;;4947177;28;21199;-89
2022/08/19 02:13:53;;;;;;;21.63;19.53;;;19.40;99.90;;;;;;4935140;28;20445;-89
2022/08/19 02:16:24;;;;;;;20.30;18.40;;;19.40;99.90;;;;;;4948537;28;20457;-88
2022/08/19 02:19:06;;;;;;;19.43;17.67;;;19.40;99.90;;;;;;4947117;28;21001;-89
2022/08/19 02:21:34;;;;;;;21.73;19.60;;;19.40;99.90;;;;;;4950843;28;20441;-89
2022/08/19 02:24:03;;;;;;;22.00;19.90;;;19.40;99.90;;;;;;4950606;28;20793;-88
2022/08/19 02:26:43;;;;;;;19.93;18.03;;;19.50;99.90;;;;;;4939811;28;20187;-90
2022/08/19 02:29:13;;;;;;;21.33;19.43;;;19.40;99.90;;;;;;4955383;28;20444;-89
2022/08/19 02:31:39;;;;;;;20.00;18.10;;;19.50;99.90;;;;;;4932940;28;20441;-89
2022/08/19 02:34:05;;;;;;;22.80;20.50;;;19.60;99.90;;;;;;4930170;28;20441;-88
2022/08/19 02:36:30;;;;;;;22.33;20.23;;;19.50;99.90;;;;;;4933597;28;20264;-88
2022/08/19 02:38:59;;;;;;;21.87;19.77;;;19.40;99.90;;;;;;4931711;28;20190;-88
2022/08/19 02:41:27;;;;;;;22.73;20.57;;;19.20;99.90;;;;;;4921420;28;20199;-89
2022/08/19 02:43:57;;;;;;;21.97;19.70;;;19.20;99.90;;;;;;4954454;28;20436;-87
2022/08/19 02:46:26;;;;;;;23.50;20.80;;;19.20;99.90;;;;;;4929812;28;20436;-88
2022/08/19 02:48:54;;;;;;;21.37;19.37;;;19.30;99.90;;;;;;4947179;28;20445;-89
2022/08/19 02:51:26;;;;;;;22.13;19.93;;;19.30;99.90;;;;;;4931935;28;20892;-88
2022/08/19 02:53:56;;;;;;;22.03;19.83;;;19.40;99.90;;;;;;4928517;28;20453;-89
2022/08/19 02:56:25;;;;;;;21.03;18.80;;;19.40;99.90;;;;;;4947290;28;21003;-88
2022/08/19 02:58:51;;;;;;;21.00;18.80;;;19.40;99.90;;;;;;4947037;28;20451;-89
2022/08/19 03:01:28;;;;;;;22.63;18.70;;;19.40;99.90;;;;;;4936714;28;20445;-89
2022/08/19 03:03:56;;;;;;;21.40;19.20;;;19.40;99.90;;;;;;4929136;28;20713;-88
2022/08/19 03:06:22;;;;;;;24.10;20.73;;;19.50;99.90;;;;;;4945961;28;20457;-89
2022/08/19 03:08:53;;;;;;;22.67;20.53;;;19.50;99.90;;;;;;4942429;28;20534;-89
2022/08/19 03:11:31;;;;;;;24.03;19.50;;;19.40;99.90;;;;;;4930837;28;20454;-89
2022/08/19 03:13:57;;;;;;;23.33;20.83;;;19.40;99.90;;;;;;4934236;28;20851;-89
2022/08/19 03:16:25;;;;;;;20.97;19.00;;;19.40;99.90;;;;;;4946320;28;21356;-87
2022/08/19 03:18:52;;;;;;;20.00;18.10;;;19.70;99.90;;;;;;4939610;28;20473;-87
2022/08/19 03:21:21;;;;;;;21.87;19.83;;;20.00;99.90;;;;;;4932059;28;20450;-88
2022/08/19 03:23:47;;;;;;;21.60;19.40;;;19.90;99.90;;;;;;4930750;28;21161;-87
2022/08/19 03:26:14;;;;;;;22.07;19.87;;;19.90;99.90;;;;;;4926792;28;20541;-88
2022/08/19 03:28:41;;;;;;;21.43;19.30;;;19.80;99.90;;;;;;4951144;28;20521;-88
2022/08/19 03:31:13;;;;;;;22.73;20.53;;;19.60;99.90;;;;;;4932546;28;20438;-88
2022/08/19 03:33:40;;;;;;;22.53;20.33;;;19.60;99.90;;;;;;4938950;28;21147;-89
2022/08/19 03:36:13;;;;;;;21.60;19.50;;;19.50;99.90;;;;;;4938326;28;20446;-89
2022/08/19 03:38:46;;;;;;;19.43;17.67;;;19.30;99.90;;;;;;4932614;28;20840;-88
2022/08/19 03:41:15;;;;;;;22.47;20.17;;;19.30;99.90;;;;;;4930630;28;20454;-88
2022/08/19 03:43:57;;;;;;;21.47;19.37;;;19.40;99.90;;;;;;4947012;28;20469;-89
2022/08/19 03:46:33;;;;;;;22.20;19.93;;;19.50;99.90;;;;;;4956166;28;20452;-89
2022/08/19 03:49:18;;;;;;;22.70;20.37;;;19.50;99.90;;;;;;4945684;28;20444;-88
2022/08/19 03:51:53;;;;;;;22.20;20.00;;;19.50;99.90;;;;;;4936335;28;20572;-89
2022/08/19 03:54:27;;;;;;;22.40;20.00;;;19.40;99.90;;;;;;4941461;28;20453;-88
2022/08/19 03:56:54;;;;;;;22.07;19.97;;;19.40;99.90;;;;;;4934265;28;20600;-89
2022/08/19 03:59:25;;;;;;;23.07;20.77;;;19.30;99.90;;;;;;4932558;28;20489;-88
2022/08/19 04:01:55;;;;;;;21.83;19.63;;;19.20;99.90;;;;;;4947507;28;21058;-88
2022/08/19 04:04:21;;;;;;;22.23;20.03;;;19.00;99.90;;;;;;4924354;28;20484;-88
2022/08/19 04:06:47;;;;;;;20.87;18.80;;;18.90;99.90;;;;;;4930535;28;20901;-88
2022/08/19 04:09:14;;;;;;;21.70;19.60;;;18.90;99.90;;;;;;4933588;28;20540;-88
2022/08/19 04:11:46;;;;;;;22.87;20.40;;;18.90;99.90;;;;;;4943223;28;21459;-89
2022/08/19 04:14:15;;;;;;;23.00;20.60;;;19.00;99.90;;;;;;4930615;28;20460;-88
2022/08/19 04:16:44;;;;;;;23.03;20.73;;;19.00;99.90;;;;;;4945137;28;20444;-89
2022/08/19 04:19:12;;;;;;;25.43;22.83;;;19.00;99.90;;;;;;4915757;28;20495;-89
2022/08/19 04:21:52;;;;;;;24.90;22.40;;;19.00;99.90;;;;;;4917845;28;20537;-90
2022/08/19 04:24:19;;;;;;;27.00;24.07;;;19.10;99.90;;;;;;4931593;28;20454;-89
2022/08/19 04:26:45;;;;;;;27.80;24.97;;;19.10;99.90;;;;;;4924754;28;20510;-90
2022/08/19 04:29:14;;;;;;;29.20;24.83;;;19.10;99.90;;;;;;4960216;28;20438;-90
2022/08/19 04:31:45;;;;;;;27.30;24.70;;;19.10;99.90;;;;;;4938181;28;20723;-90
2022/08/19 04:34:18;;;;;;;28.23;25.30;;;19.20;99.90;;;;;;4960040;28;20790;-90
2022/08/19 04:36:44;;;;;;;27.77;24.87;;;19.20;99.90;;;;;;4956424;28;21004;-90
2022/08/19 04:39:15;;;;;;;28.57;25.53;;;19.10;99.90;;;;;;4946020;28;20517;-89
2022/08/19 04:44:30;;;;;;;28.40;25.47;;;19.10;99.90;;;;;;4927335;28;20528;-90
2022/08/19 04:46:56;;;;;;;29.20;26.20;;;19.10;99.90;;;;;;4918537;28;20544;-90
2022/08/19 04:49:23;;;;;;;28.50;25.60;;;19.10;99.90;;;;;;4922464;28;21505;-90
2022/08/19 04:51:52;;;;;;;29.90;26.90;;;19.10;99.90;;;;;;4945048;28;20457;-89
2022/08/19 04:54:22;;;;;;;32.10;26.80;;;19.20;99.90;;;;;;4939397;28;20537;-90
2022/08/19 04:56:52;;;;;;;28.37;25.50;;;19.20;99.90;;;;;;4948720;28;20535;-87
2022/08/19 04:59:19;;;;;;;29.10;26.00;;;19.20;99.90;;;;;;4929163;28;20473;-88
2022/08/19 05:01:55;;;;;;;29.37;26.30;;;19.30;99.90;;;;;;4935719;28;20433;-89
2022/08/19 05:04:44;;;;;;;30.23;26.97;;;19.30;99.90;;;;;;4929161;28;20441;-95
2022/08/19 05:07:13;;;;;;;28.47;25.47;;;19.30;99.90;;;;;;4937362;28;20497;-93
2022/08/19 05:09:46;;;;;;;29.80;25.80;;;19.30;99.90;;;;;;4918437;28;20477;-93
2022/08/19 05:12:18;;;;;;;29.00;25.90;;;19.30;99.90;;;;;;4932668;28;20819;-94
2022/08/19 05:14:47;;;;;;;29.33;25.67;;;19.30;99.90;;;;;;4908558;28;20445;-94
2022/08/19 05:17:13;;;;;;;27.00;24.27;;;19.40;99.90;;;;;;4944341;28;20446;-89
2022/08/19 05:22:32;;;;;;;27.77;24.90;;;19.50;99.90;;;;;;4941682;28;20544;-90
2022/08/19 05:27:53;;;;;;;27.80;24.90;;;19.40;99.90;;;;;;4932481;28;20872;-93
2022/08/19 05:30:46;;;;;;;;;;;;;;;;;;;;;
2022/08/19 05:33:22;;;;;;;25.73;23.13;;;19.40;99.90;;;;;;4935887;28;20197;-91
2022/08/19 05:35:58;;;;;;;30.40;25.77;;;19.40;99.90;;;;;;4915971;28;20795;-91
2022/08/19 05:38:40;;;;;;;26.10;23.60;;;19.50;99.90;;;;;;4922329;28;21085;-91
2022/08/19 05:41:09;;;;;;;28.73;25.73;;;19.40;99.90;;;;;;4910305;28;20552;-91
2022/08/19 05:43:35;;;;;;;28.13;25.20;;;19.50;99.90;;;;;;4928173;28;20984;-91
2022/08/19 05:46:00;;;;;;;29.30;26.00;;;19.50;99.90;;;;;;4931923;28;20441;-93
2022/08/19 05:48:36;;;;;;;30.60;25.90;;;19.40;99.90;;;;;;4933323;28;20636;-91
2022/08/19 05:51:08;;;;;;;27.80;24.67;;;19.50;99.90;;;;;;4945769;28;20178;-92
2022/08/19 05:53:37;;;;;;;31.47;26.53;;;19.40;99.90;;;;;;4935470;28;20469;-91
2022/08/19 05:56:15;;;;;;;28.43;25.47;;;19.50;99.90;;;;;;4931062;28;20528;-91
2022/08/19 05:58:41;;;;;;;29.43;26.37;;;19.50;99.90;;;;;;4934042;28;20469;-91
2022/08/19 06:01:26;;;;;;;28.97;25.93;;;19.40;99.90;;;;;;4946125;28;20476;-91
2022/08/19 06:03:55;;;;;;;28.40;25.50;;;19.40;99.90;;;;;;4923522;28;20445;-92
2022/08/19 06:06:21;;;;;;;30.97;27.57;;;19.30;99.90;;;;;;4931105;28;20456;-91
2022/08/19 06:08:52;;;;;;;29.30;26.30;;;19.30;99.90;;;;;;4922930;28;20460;-92
2022/08/19 06:11:36;;;;;;;28.37;25.47;;;19.30;99.90;;;;;;4946931;28;20449;-91
2022/08/19 06:14:08;;;;;;;27.93;25.13;;;19.30;99.90;;;;;;4946177;28;20457;-92
2022/08/19 06:16:38;;;;;;;29.37;26.20;;;19.30;99.90;;;;;;4941452;28;21472;-92
2022/08/19 06:19:07;;;;;;;29.80;26.90;;;19.30;99.90;;;;;;4944554;28;20473;-92
2022/08/19 06:21:33;;;;;;;29.23;26.17;;;19.30;99.90;;;;;;4931064;28;20857;-91
2022/08/19 06:23:59;;;;;;;31.43;28.07;;;19.40;99.90;;;;;;4932500;28;21014;-91
2022/08/19 06:26:29;;;;;;;31.40;27.80;;;19.30;99.90;;;;;;4945927;28;20479;-92
2022/08/19 06:28:55;;;;;;;29.60;26.60;;;19.30;99.90;;;;;;4924459;28;20948;-91
2022/08/19 06:31:24;;;;;;;30.90;27.63;;;19.20;99.90;;;;;;4935543;28;20194;-90
2022/08/19 06:33:55;;;;;;;31.83;27.73;;;19.10;99.90;;;;;;4948367;28;20560;-90
2022/08/19 06:36:31;;;;;;;32.07;27.07;;;19.10;99.90;;;;;;4929027;28;20456;-91
2022/08/19 06:38:58;;;;;;;30.30;27.20;;;19.10;99.90;;;;;;4945533;28;20446;-92
2022/08/19 06:41:28;;;;;;;30.30;25.17;;;19.10;99.90;;;;;;4923947;28;21548;-91
2022/08/19 06:44:01;;;;;;;30.20;27.10;;;19.10;99.90;;;;;;4944627;28;20458;-91
2022/08/19 06:46:27;;;;;;;31.30;27.90;;;19.20;99.90;;;;;;4929424;28;20445;-91
2022/08/19 06:48:54;;;;;;;31.13;27.93;;;19.20;99.90;;;;;;4930581;28;20477;-91
2022/08/19 06:51:30;;;;;;;30.50;27.40;;;19.20;99.90;;;;;;4944501;28;20501;-91
2022/08/19 06:54:06;;;;;;;29.30;26.53;;;19.20;99.90;;;;;;4941622;28;21014;-90
2022/08/19 06:56:35;;;;;;;29.10;26.07;;;19.20;99.90;;;;;;4935769;28;20449;-91
2022/08/19 06:59:10;;;;;;;28.03;25.20;;;19.20;99.90;;;;;;4953143;28;20450;-91
2022/08/19 07:01:46;;;;;;;29.30;26.30;;;19.30;99.90;;;;;;4945251;28;20571;-92
2022/08/19 07:04:15;;;;;;;30.80;27.50;;;19.30;99.90;;;;;;4949919;28;20495;-88
2022/08/19 07:06:42;;;;;;;29.50;26.50;;;19.30;99.90;;;;;;4946100;28;20843;-90
2022/08/19 07:09:14;;;;;;;31.13;27.93;;;19.30;99.90;;;;;;4929628;28;21567;-90
2022/08/19 07:11:45;;;;;;;32.00;27.27;;;19.20;99.90;;;;;;4936024;28;20971;-92
2022/08/19 07:14:12;;;;;;;31.80;28.57;;;19.20;99.90;;;;;;4924592;28;21377;-94
2022/08/19 07:16:40;;;;;;;30.13;27.00;;;19.20;99.90;;;;;;4952356;28;20449;-92
2022/08/19 07:19:06;;;;;;;30.70;27.70;;;19.20;99.90;;;;;;4932598;28;20536;-91
2022/08/19 07:21:32;;;;;;;31.00;27.90;;;19.20;99.90;;;;;;4927671;28;20458;-94
2022/08/19 07:24:00;;;;;;;30.80;27.70;;;19.00;99.90;;;;;;4953376;28;20461;-89
2022/08/19 07:27:05;;;;;;;30.00;26.90;;;19.00;99.90;;;;;;4941860;28;20428;-91
2022/08/19 07:29:33;;;;;;;31.70;28.33;;;19.00;99.90;;;;;;4944985;28;20910;-92
2022/08/19 07:32:02;;;;;;;31.87;28.50;;;18.90;99.90;;;;;;4944449;28;20762;-91
2022/08/19 07:34:30;;;;;;;31.97;28.40;;;18.90;99.90;;;;;;4948716;28;20532;-90
2022/08/19 07:37:04;;;;;;;32.07;28.70;;;18.90;99.90;;;;;;4935332;28;20496;-91
2022/08/19 07:39:37;;;;;;;33.87;30.17;;;19.00;99.90;;;;;;4945701;28;20500;-94
2022/08/19 07:42:10;;;;;;;36.83;32.83;;;19.00;99.90;;;;;;4956008;28;20504;-94
2022/08/19 07:44:37;;;;;;;34.03;28.93;;;19.00;99.90;;;;;;4923931;28;20504;-92
2022/08/19 07:47:04;;;;;;;36.30;30.20;;;19.00;99.90;;;;;;4934579;28;20438;-93
2022/08/19 07:49:30;;;;;;;31.40;28.07;;;19.00;99.90;;;;;;4944919;28;20457;-93
2022/08/19 07:52:02;;;;;;;33.80;30.37;;;19.10;99.90;;;;;;4948920;28;20438;-93
2022/08/19 07:54:40;;;;;;;32.77;28.93;;;19.20;99.90;;;;;;4931538;28;20182;-93
2022/08/19 07:57:07;;;;;;;31.80;28.50;;;19.20;99.90;;;;;;4948762;28;20445;-95
2022/08/19 07:59:36;;;;;;;31.03;27.73;;;19.20;99.90;;;;;;4931111;28;20471;-93
2022/08/19 08:02:14;;;;;;;31.43;26.70;;;19.10;99.90;;;;;;4937405;28;20453;-95
2022/08/19 08:10:21;;;;;;;31.77;28.37;;;18.80;99.90;;;;;;4942122;28;20451;-92
2022/08/19 08:12:48;;;;;;;31.97;28.67;;;18.90;99.90;;;;;;4963237;28;20468;-95
2022/08/19 08:15:19;;;;;;;34.13;29.17;;;18.80;99.90;;;;;;4970547;28;20186;-96
2022/08/19 08:17:45;;;;;;;31.77;28.47;;;18.70;99.90;;;;;;4948216;28;20461;-96
2022/08/19 08:20:36;;;;;;;31.30;27.90;;;18.70;99.90;;;;;;4958116;28;20481;-94
2022/08/19 08:25:49;;;;;;;32.33;28.93;;;18.90;99.90;;;;;;4947719;28;20541;-95
2022/08/19 08:28:18;;;;;;;31.77;28.23;;;18.80;99.90;;;;;;4937898;28;20476;-94
2022/08/19 08:30:48;;;;;;;32.37;28.87;;;18.80;99.90;;;;;;4951541;28;20452;-94
2022/08/19 08:33:23;;;;;;;31.37;28.03;;;18.90;99.90;;;;;;4935303;28;20449;-94
2022/08/19 08:35:49;;;;;;;31.93;28.73;;;19.10;99.90;;;;;;4959132;28;20437;-95
2022/08/19 08:38:15;;;;;;;32.03;28.60;;;19.30;99.90;;;;;;4961442;28;21010;-95
2022/08/19 08:41:06;;;;;;;30.63;27.43;;;19.30;99.90;;;;;;4943458;28;20305;-94
2022/08/19 08:43:50;;;;;;;29.67;26.47;;;19.20;99.90;;;;;;4957568;28;20434;-94
2022/08/19 08:46:26;;;;;;;32.23;28.93;;;19.10;99.90;;;;;;4941116;28;20454;-94
2022/08/19 08:48:55;;;;;;;31.20;27.97;;;18.90;99.90;;;;;;4941459;28;20537;-95
2022/08/19 08:51:42;;;;;;;34.57;30.63;;;18.80;99.90;;;;;;4959494;28;20446;-93
2022/08/19 08:54:13;;;;;;;33.00;29.70;;;18.80;99.90;;;;;;4957025;28;20538;-93
2022/08/19 08:56:53;;;;;;;29.67;26.53;;;18.80;99.90;;;;;;4938109;28;20449;-94
2022/08/19 08:59:32;;;;;;;32.73;29.43;;;18.90;99.90;;;;;;4936327;28;20556;-94
2022/08/19 09:02:22;;;;;;;31.77;28.47;;;19.00;99.90;;;;;;4958808;28;20514;-96
2022/08/19 09:04:52;;;;;;;33.10;26.40;;;19.00;99.90;;;;;;4936678;28;20438;-90
2022/08/19 09:07:52;;;;;;;30.63;27.43;;;18.90;99.90;;;;;;4937100;28;21190;-93
2022/08/19 09:10:42;;;;;;;31.03;28.00;;;18.90;99.90;;;;;;4934107;28;20460;-93
2022/08/19 09:13:52;;;;;;;33.03;28.33;;;19.00;99.90;;;;;;4946614;28;21164;-92
2022/08/19 09:16:44;;;;;;;29.13;26.13;;;18.90;99.90;;;;;;4945240;28;20509;-94
2022/08/19 09:19:12;;;;;;;32.87;29.17;;;18.90;99.90;;;;;;4930068;28;20446;-94
2022/08/19 09:21:43;;;;;;;33.00;27.97;;;19.00;99.90;;;;;;4949880;28;20480;-93
2022/08/19 09:24:09;;;;;;;28.67;25.63;;;19.10;99.90;;;;;;4942188;28;20985;-93
2022/08/19 09:26:46;;;;;;;29.07;26.17;;;19.00;99.90;;;;;;4931404;28;20438;-94
2022/08/19 09:29:12;;;;;;;30.07;26.87;;;19.10;99.90;;;;;;4937113;28;20194;-95
2022/08/19 09:32:12;;;;;;;32.87;27.43;;;19.20;99.90;;;;;;4937720;28;20443;-92
2022/08/19 09:34:38;;;;;;;30.13;26.97;;;19.30;99.90;;;;;;4929558;28;20198;-91
2022/08/19 09:37:05;;;;;;;29.50;26.47;;;19.40;99.90;;;;;;4946475;28;21660;-91
2022/08/19 09:39:30;;;;;;;29.33;26.00;;;19.50;99.90;;;;;;4926167;28;20682;-92
2022/08/19 09:41:56;;;;;;;29.90;26.73;;;19.40;99.90;;;;;;4929263;28;20438;-95
2022/08/19 09:44:23;;;;;;;29.30;26.40;;;19.50;99.90;;;;;;4933031;28;20196;-92
2022/08/19 09:46:49;;;;;;;28.67;25.87;;;19.50;99.90;;;;;;4934511;28;20182;-92
2022/08/19 09:49:39;;;;;;;29.70;26.80;;;19.60;99.90;;;;;;4934051;28;20500;-96
2022/08/19 09:52:07;;;;;;;29.97;26.80;;;19.60;99.90;;;;;;4937293;28;21027;-94
2022/08/19 09:54:36;;;;;;;33.23;28.33;;;19.70;99.90;;;;;;4931873;28;21735;-96
2022/08/19 09:57:24;;;;;;;28.13;25.10;;;19.60;99.90;;;;;;4951873;28;20974;-96
2022/08/19 09:59:53;;;;;;;29.57;26.47;;;19.70;99.90;;;;;;4949049;28;20488;-95
2022/08/19 10:02:30;;;;;;;27.87;25.07;;;19.80;99.90;;;;;;4955745;28;20991;-95
2022/08/19 10:08:05;;;;;;;32.20;28.63;;;19.90;99.90;;;;;;4955670;28;21170;-93
2022/08/19 10:10:52;;;;;;;28.23;25.20;;;20.00;99.90;;;;;;4919280;28;20489;-94
2022/08/19 10:13:24;;;;;;;31.40;28.17;;;19.80;99.90;;;;;;4927403;28;20446;-95
2022/08/19 10:16:04;;;;;;;30.00;26.90;;;19.70;99.90;;;;;;4943309;28;20849;-95
2022/08/19 10:18:47;;;;;;;;;;;;;;;;;;;;;
2022/08/19 19:52:04;;;;;;;34.87;31.47;;;19.20;99.90;;;;;;5303583;23;20554;-85
2022/08/19 19:54:29;;;;;;;32.43;29.33;;;19.10;99.90;;;;;;4808119;29;20488;-85
